Pico dos Marins, Brazil
Current Conditions -  °F | °C
As of 2:00 PM on Saturday 22 Nov 2014 (Local Time) from SBGW Reporting Station
Scattered Clouds Scattered Clouds  
Wind Chill: 95°   Ceiling: Unl
Heat Index: 95°   Visibility: 6mi
Dew Point: 57°   Wind: 5mph
Humidity: 28%   Direction: 10°N
Pressure: 29.88"   Gusts: NA
Location:  22.61°S, 45.18°W
Report Text: SBGW 221600Z 01004KT 9999 SCT030 SCT070 35/14 Q1012
Loading
Personal Weather Stations






























Interactive Weather Map New forecast layout! Learn more

10-Day Weather Forecast

Advertisements
Track Severe Weather on mobile